Flight Track Log - Related Links

Times and Time Zones

All times are in EST time to prevent confusion due to time zone crossing. See the N690TW flight status page for this flight to view local times or setup timezone preferences in your user account.

Time Position Orientation Groundspeed Altitude Reporting Facility
EST Latitude Longitude Course Direction KTS MPH feet Rate Location/Type
Sat 07:38:22 PM 39.1333 -108.5667 322° Northwest 161 185 6,200  Level Denver TRACON
Sat 07:39:22 PM 39.1667 -108.6000 322° Northwest 177 204 8,000 1,938 Climbing Denver TRACON
Sat 07:39:58 PM 39.1753 -108.5583 75° East 169 194 9,300 2,020 Climbing Denver Center
Sat 07:41:00 PM 39.1831 -108.4986 80° East 168 193 11,300 2,016 Climbing Denver Center
Sat 07:42:00 PM 39.1903 -108.4300 82° East 178 205 13,400 1,984 Climbing Denver Center
Sat 07:43:04 PM 39.1950 -108.3703 84° East 178 205 15,400 1,905 Climbing Denver Center
Sat 07:44:06 PM 39.1994 -108.3133 84° East 156 180 17,400 1,805 Climbing Denver Center
Sat 07:45:07 PM 39.2050 -108.2506 83° East 160 184 19,100 1,645 Climbing Denver Center
Sat 07:46:10 PM 39.2097 -108.1919 84° East 162 186 20,800 1,694 Climbing Denver Center
Sat 07:47:11 PM 39.2144 -108.1283 85° East 163 188 22,600 1,721 Climbing Denver Center
Sat 07:48:12 PM 39.2189 -108.0664 85° East 169 194 24,300 1,536 Climbing Denver Center
Sat 07:49:16 PM 39.2231 -108.0064 85° East 174 200 25,800 1,306 Climbing Denver Center
Sat 07:50:16 PM 39.2300 -107.9358 83° East 178 205 27,000 585 Climbing Denver Center
Sat 07:51:19 PM 39.2333 -107.8619 87° East 216 249 27,000  Level Denver Center
Sat 07:52:34 PM 39.2392 -107.7817 85° East 229 264 27,000  Level Denver Center
Sat 07:53:34 PM 39.2481 -107.6703 84° East 242 278 27,000  Level Denver Center
Sat 07:54:38 PM 39.2542 -107.5742 85° East 242 278 27,000  Level Denver Center
Sat 07:55:38 PM 39.2606 -107.4925 84° East 241 277 27,000  Level Denver Center
Sat 07:56:41 PM 39.2689 -107.3956 84° East 242 278 27,000  Level Denver Center
Sat 07:57:43 PM 39.2739 -107.3136 85° East 242 278 27,000  Level Denver Center
Sat 07:58:43 PM 39.2803 -107.2314 84° East 241 277 27,000  Level Denver Center
Sat 07:59:46 PM 39.2869 -107.1361 85° East 241 277 27,000  Level Denver Center
Sat 08:00:59 PM 39.2931 -107.0531 85° East 241 277 27,000  Level Denver Center
Sat 08:02:02 PM 39.3000 -106.9578 85° East 241 277 27,000 -286 Level Denver Center
Sat 08:03:05 PM 39.3078 -106.8450 85° East 243 280 26,400 -683 Descending Denver Center
Sat 08:04:05 PM 39.3144 -106.7611 84° East 244 281 25,600 -726 Descending Denver Center
Sat 08:05:09 PM 39.3206 -106.6794 84° East 240 276 24,900 -774 Descending Denver Center
Sat 08:06:09 PM 39.3269 -106.5783 85° East 250 288 24,000 -829 Descending Denver Center
Sat 08:07:12 PM 39.3339 -106.4925 84° East 250 288 23,200 -816 Descending Denver Center
Sat 08:08:14 PM 39.3397 -106.3906 86° East 252 290 22,300 -590 Descending Denver Center
Sat 08:09:14 PM 39.3464 -106.3031 84° East 254 292 22,000 -393 Descending Denver Center
Sat 08:10:16 PM 39.3519 -106.2047 86° East 248 285 21,500 -677 Descending Denver Center
Sat 08:11:18 PM 39.3569 -106.1194 86° East 254 292 20,600 -927 Descending Denver Center
Sat 08:12:19 PM 39.3631 -106.0247 85° East 260 299 19,600 -960 Descending Denver Center
Sat 08:13:23 PM 39.3689 -105.9303 85° East 260 299 18,600 -823 Descending Denver Center
Sat 08:14:23 PM 39.3744 -105.8350 86° East 262 302 17,900 -942 Descending Denver Center
Sat 08:15:24 PM 39.3822 -105.7214 85° East 263 303 16,700 -919 Descending Denver Center
Sat 08:16:27 PM 39.3883 -105.6267 85° East 263 303 16,000 -339 Descending Denver Center
Sat 08:17:28 PM 39.3931 -105.5375 86° East 259 298 16,000 -246 Level Denver Center
Sat 08:18:29 PM 39.4153 -105.4475 72° East 261 300 15,500 -720 Descending Denver Center
Sat 08:19:33 PM 39.4592 -105.3747 52° Northeast 257 296 14,500 -1,048 Descending Denver Center
Sat 08:20:35 PM 39.5069 -105.2919 53° Northeast 262 302 13,300 -1,171 Descending Denver Center
Sat 08:21:36 PM 39.5594 -105.2286 43° Northeast 263 303 12,100 -934 Descending Denver Center
Sat 08:22:37 PM 39.6269 -105.1828 28° Northeast 258 297 11,400 -1,161 Descending Denver Center
Sat 08:23:40 PM 39.6928 -105.1433 25° Northeast 258 297 9,700 -1,584 Descending Denver Center
Sat 08:24:42 PM 39.7603 -105.1122 20° North 258 297 8,100 -1,289 Descending Denver Center
Sat 08:25:41 PM 39.8311 -105.0817 18° North 252 290 7,100 -829 Descending Denver Center
Sat 08:26:45 PM 39.8778 -105.0725 North 169 194 6,400 -726 Descending Denver Center
Sat 08:27:45 PM 39.9003 -105.0989 318° Northwest 111 128 5,600 -800 Descending Denver Center
Sat 08:29:00 PM 39.9000 -105.1167 270° West  Level FlightAware Approximate
Sat 08:36:00 PM 39.9088 -105.1172 270° West  Level Estimated
Sat 08:37:00 PM 39.9088 -105.1172 270° West  Level Estimated

Login

Don't have an account? Register now (free) for customized features, flight alerts, and more!